createdAt,value
2022-12-15T05:57:20.207Z,-2.96
2022-12-15T09:01:30.508Z,-1.74
2022-12-15T13:30:36.697Z,2.15
2022-12-15T13:35:36.571Z,2.22
2022-12-15T13:40:47.898Z,2.31
2022-12-15T13:45:57.290Z,2.27
2022-12-15T13:51:28.577Z,2.39
2022-12-15T14:02:33.937Z,2.43
2022-12-15T14:07:36.450Z,2.31
2022-12-15T14:12:34.102Z,2.34
2022-12-15T14:17:35.944Z,2.37
2022-12-15T14:27:45.150Z,2.49
2022-12-15T14:32:54.915Z,2.44
2022-12-15T14:37:52.563Z,2.55
2022-12-15T14:42:50.648Z,2.54
2022-12-15T14:48:39.396Z,2.46
2022-12-15T14:53:23.839Z,2.43
2022-12-15T14:58:33.039Z,2.41
2022-12-15T15:03:42.284Z,2.50
2022-12-15T16:18:01.290Z,2.66
2022-12-15T16:49:05.508Z,2.77
2022-12-15T16:54:15.895Z,2.60
2022-12-15T16:59:33.153Z,2.74
2022-12-15T17:04:30.613Z,2.72
2022-12-15T17:09:27.148Z,2.74
2022-12-15T17:14:23.594Z,2.64
2022-12-15T17:19:21.506Z,2.64
2022-12-15T17:24:20.053Z,2.74
2022-12-15T17:29:24.495Z,2.70
2022-12-15T17:34:32.718Z,2.76
2022-12-15T17:39:29.765Z,2.61
2022-12-15T17:44:36.716Z,2.70
2022-12-15T17:49:36.616Z,2.62
2022-12-15T17:54:33.873Z,2.70
2022-12-15T17:59:32.219Z,2.71
2022-12-15T18:04:28.776Z,2.59
2022-12-15T18:09:25.741Z,2.54
2022-12-15T18:14:24.534Z,2.63
2022-12-15T18:19:23.460Z,2.46
2022-12-15T18:24:21.686Z,2.40
2022-12-15T18:29:20.710Z,2.34
2022-12-15T18:34:21.440Z,2.26
2022-12-15T18:39:19.867Z,2.32
2022-12-15T18:44:28.920Z,2.02
2022-12-15T18:54:56.723Z,1.96
2022-12-15T19:11:46.460Z,1.60
2022-12-15T19:17:05.973Z,1.79
2022-12-15T19:22:35.710Z,1.54
2022-12-15T19:27:33.479Z,1.50
2022-12-15T22:31:05.117Z,0.86
